Leesburg International Airport Leesburg US
ICAO: KLEE
IATA: LEE
Category: Medium
Scheduled Services: No

Elevation: 76 ft
TransAlt. 18000 ft.

Airport Communications:
ORLANDO APP/DEP:121.1
ASOS:134.325
CTAF/UNICOM:122.725

KLEE Zoom In..

If you have problems with the map follow the link
https://www.worldairports.se/pages/airport.php?
ICAO=KLEE

Runways:

(A) RW 03 length 4957 ft width 100 ft
---- / hdg 40

(B) RW 13 length 6300 ft width 100 ft
---- / hdg 135

(C) RW 21 length 4957 ft width 100 ft
---- / hdg 220

(D) RW 31 length 6300 ft width 100 ft
---- / hdg 315

Location; KLEE
Day. 21 / Time. 20.53 Zulu
* Altimeter: 30.19
* Temperature: 12° c. 53.6°f.
* Wind from: 350° Speed 13 kn with Gusts up to 21 kn.
Dewpoint: -06° c.
Visibility: 10 Statute Miles.
Clouds: Clear (automated report).

KLEE 212053Z 35013G21KT 10SM CLR 12/M06 A3019 RMK AO2 SLP224 T01171056 56018


Wind From 350°
Speed 13 kn.

 
 
jpsmedia worldairports.se 2020   terms of use